Time;durP1;ratioP1;P1;durP2;ratioP2;P2;SDS_P1;SDS_P2;PMS_P1;PMS_P2;Temp;Humidity;BMP_temperature;BMP_pressure;BME280_temperature;BME280_humidity;BME280_pressure;Samples;Min_cycle;Max_cycle;Signal;HPM_P1;HPM_P2
2022/03/21 00:01:45;;;;;;;26.33;20.80;;;8.30;1.00;8.80;101923.00;;;;5096866;28;20461;-77
2022/03/21 00:04:13;;;;;;;22.53;20.13;;;8.30;1.00;8.80;101928.00;;;;5081399;28;20478;-79
2022/03/21 00:06:43;;;;;;;20.37;17.90;;;8.20;1.00;8.60;101937.00;;;;5081135;28;21239;-76
2022/03/21 00:09:12;;;;;;;20.30;18.20;;;8.20;1.00;8.60;101948.00;;;;5079907;28;20474;-78
2022/03/21 00:11:40;;;;;;;19.40;17.30;;;8.10;1.00;8.60;101922.00;;;;5079256;28;20458;-77
2022/03/21 00:14:12;;;;;;;18.03;16.13;;;8.10;1.00;8.50;101939.00;;;;5080468;28;20456;-77
2022/03/21 00:16:41;;;;;;;20.40;18.20;;;8.00;1.00;8.40;101925.00;;;;5070553;28;21096;-77
2022/03/21 00:19:10;;;;;;;18.33;15.93;;;8.00;1.00;8.50;101931.00;;;;5078757;28;20805;-77
2022/03/21 00:21:39;;;;;;;18.63;16.60;;;8.10;1.00;8.40;101951.00;;;;5080522;28;20455;-77
2022/03/21 00:24:09;;;;;;;18.60;16.50;;;8.10;1.00;8.60;101915.00;;;;5078804;28;20477;-77
2022/03/21 00:26:37;;;;;;;17.73;15.30;;;8.20;1.00;8.60;101924.00;;;;5078186;28;20491;-77
2022/03/21 00:29:15;;;;;;;18.73;16.33;;;8.30;1.00;8.80;101942.00;;;;5079037;28;21260;-77
2022/03/21 00:31:44;;;;;;;19.13;15.20;;;8.30;1.00;8.80;101934.00;;;;5079369;28;20450;-77
2022/03/21 00:34:13;;;;;;;21.57;16.80;;;8.40;1.00;8.80;101941.00;;;;5080412;28;20526;-76
2022/03/21 00:36:41;;;;;;;21.03;15.47;;;8.40;1.00;8.80;101935.00;;;;5082420;28;20966;-77
2022/03/21 00:39:17;;;;;;;20.43;16.73;;;8.30;1.00;8.70;101943.00;;;;5091330;28;20487;-77
2022/03/21 00:41:46;;;;;;;18.30;14.80;;;8.30;1.00;8.60;101946.00;;;;5088028;28;20462;-77
2022/03/21 00:44:14;;;;;;;17.43;15.53;;;8.30;1.00;8.60;101937.00;;;;5103631;27;20592;-77
2022/03/21 00:46:42;;;;;;;18.23;14.63;;;8.20;1.00;8.50;101948.00;;;;5088015;28;20470;-77
2022/03/21 00:49:12;;;;;;;16.07;14.17;;;8.20;1.00;8.70;101922.00;;;;5088178;28;20736;-77
2022/03/21 00:51:40;;;;;;;20.00;15.53;;;8.30;1.00;8.70;101932.00;;;;5083621;28;20463;-77
2022/03/21 00:54:09;;;;;;;16.70;14.30;;;8.30;1.00;8.70;101953.00;;;;5084266;28;20454;-76
2022/03/21 00:56:38;;;;;;;16.43;14.57;;;8.30;1.00;8.80;101953.00;;;;5083526;28;20454;-77
2022/03/21 00:59:07;;;;;;;17.87;14.50;;;8.40;1.00;8.80;101948.00;;;;5084022;28;20462;-76
2022/03/21 01:01:35;;;;;;;18.87;14.60;;;8.60;1.00;8.80;101939.00;;;;5082937;28;20454;-76
2022/03/21 01:04:05;;;;;;;15.93;13.90;;;8.30;1.00;8.70;101949.00;;;;5085549;28;21380;-78
2022/03/21 01:06:33;;;;;;;19.60;15.27;;;8.30;1.00;8.70;101939.00;;;;5086373;28;20838;-78
2022/03/21 01:09:02;;;;;;;19.20;14.87;;;8.20;1.00;8.60;101946.00;;;;5103856;28;20461;-81
2022/03/21 01:11:30;;;;;;;17.23;15.20;;;8.20;1.00;8.60;101939.00;;;;5114753;28;20538;-81
2022/03/21 01:13:59;;;;;;;19.23;17.20;;;8.20;1.00;8.60;101933.00;;;;5116143;28;20465;-81
2022/03/21 01:16:28;;;;;;;18.30;16.33;;;8.10;1.00;8.50;101942.00;;;;5118044;28;20497;-81
2022/03/21 01:18:56;;;;;;;16.00;14.30;;;8.10;1.00;8.50;101943.00;;;;5116750;28;20501;-80
2022/03/21 01:21:24;;;;;;;16.43;14.20;;;8.10;1.00;8.50;101937.00;;;;5113803;28;20447;-76
2022/03/21 01:23:53;;;;;;;18.90;15.40;;;8.00;1.00;8.40;101931.00;;;;5091597;28;21034;-75
2022/03/21 01:26:21;;;;;;;17.80;15.10;;;8.00;1.00;8.40;101930.00;;;;5085728;28;21567;-76
2022/03/21 01:28:50;;;;;;;17.40;14.83;;;8.00;1.00;8.30;101933.00;;;;5084755;28;20485;-77
2022/03/21 01:31:20;;;;;;;18.57;16.03;;;7.90;1.00;8.40;101933.00;;;;5088107;28;20470;-77
2022/03/21 01:33:48;;;;;;;21.00;17.27;;;7.90;1.00;8.30;101930.00;;;;5078068;28;20497;-77
2022/03/21 01:36:16;;;;;;;20.00;16.83;;;7.90;1.00;8.30;101922.00;;;;5083081;28;20458;-77
2022/03/21 01:38:45;;;;;;;22.60;18.50;;;7.90;1.00;8.20;101933.00;;;;5084558;28;20628;-77
2022/03/21 01:41:13;;;;;;;18.87;16.50;;;7.80;1.00;8.10;101916.00;;;;5080499;28;20464;-77
2022/03/21 01:43:58;;;;;;;18.53;16.27;;;7.70;1.00;8.20;101945.00;;;;5078836;28;20991;-78
2022/03/21 01:46:29;;;;;;;28.90;20.10;;;7.80;1.00;8.00;101939.00;;;;5083488;28;20454;-78
2022/03/21 01:48:58;;;;;;;18.37;15.67;;;7.60;1.00;7.90;101924.00;;;;5090123;28;20470;-78
2022/03/21 01:51:27;;;;;;;18.90;15.23;;;7.80;1.00;7.90;101931.00;;;;5100672;28;20628;-78
2022/03/21 01:56:45;;;;;;;18.07;16.17;;;7.60;1.00;8.00;101929.00;;;;5093070;28;20810;-78
2022/03/21 01:59:17;;;;;;;19.37;16.60;;;7.50;1.00;8.00;101935.00;;;;5094250;28;20470;-77
2022/03/21 02:01:47;;;;;;;18.50;14.53;;;7.70;1.00;8.00;101936.00;;;;5088949;28;20905;-78
2022/03/21 02:04:17;;;;;;;17.77;15.90;;;7.60;1.00;8.00;101926.00;;;;5094679;28;20469;-78
2022/03/21 02:06:46;;;;;;;17.70;15.80;;;7.50;1.00;7.90;101942.00;;;;5107001;28;20458;-77
2022/03/21 02:09:15;;;;;;;17.97;15.97;;;7.50;1.00;7.90;101937.00;;;;5089509;28;20466;-77
2022/03/21 02:11:43;;;;;;;18.27;16.20;;;7.40;1.00;7.80;101929.00;;;;5085529;28;20455;-77
2022/03/21 02:14:12;;;;;;;20.00;16.57;;;7.40;1.00;7.80;101933.00;;;;5089020;28;20561;-77
2022/03/21 02:16:41;;;;;;;18.77;15.33;;;7.60;1.00;7.80;101914.00;;;;5087414;28;20461;-77
2022/03/21 02:19:31;;;;;;;20.43;15.30;;;7.30;1.00;7.70;101925.00;;;;5080402;28;20551;-77
2022/03/21 02:22:21;;;;;;;17.90;15.10;;;7.70;1.00;7.70;101931.00;;;;5087351;28;20830;-78
2022/03/21 02:25:02;;;;;;;20.37;16.30;;;7.20;1.00;7.60;101935.00;;;;5080289;28;21034;-78
2022/03/21 02:27:36;;;;;;;17.50;15.60;;;7.50;1.00;7.60;101932.00;;;;5087658;28;20446;-78
2022/03/21 02:30:06;;;;;;;19.60;16.43;;;7.20;1.00;7.60;101937.00;;;;5085548;28;21042;-77
2022/03/21 02:32:37;;;;;;;18.70;16.70;;;7.10;1.00;7.50;101937.00;;;;5083990;28;20511;-77
2022/03/21 02:35:11;;;;;;;18.30;16.30;;;7.10;1.00;7.50;101941.00;;;;5084289;28;20541;-77
2022/03/21 02:37:42;;;;;;;18.20;16.40;;;7.00;1.00;7.50;101940.00;;;;5086178;28;20450;-78
2022/03/21 02:40:12;;;;;;;20.07;16.50;;;7.10;1.00;7.50;101949.00;;;;5086401;28;20454;-78
2022/03/21 02:42:43;;;;;;;18.97;16.97;;;7.00;1.00;7.50;101937.00;;;;5079363;28;20494;-78
2022/03/21 02:45:12;;;;;;;20.47;16.03;;;7.00;1.00;7.40;101932.00;;;;5087055;28;20577;-77
2022/03/21 02:47:40;;;;;;;20.17;17.50;;;7.20;1.00;7.30;101958.00;;;;5083419;28;20519;-77
2022/03/21 02:50:13;;;;;;;17.13;15.33;;;6.90;1.00;7.30;101953.00;;;;5084193;28;20461;-77
2022/03/21 02:52:44;;;;;;;16.87;15.07;;;6.90;1.00;7.30;101909.00;;;;5086708;28;20533;-78
2022/03/21 02:55:12;;;;;;;16.87;15.10;;;6.90;1.00;7.30;101948.00;;;;5079338;28;20458;-77
2022/03/21 02:57:42;;;;;;;18.50;15.77;;;6.80;1.00;7.40;101926.00;;;;5083221;28;20489;-77
2022/03/21 03:00:13;;;;;;;18.60;15.47;;;6.80;1.00;7.40;101937.00;;;;5085646;28;20460;-77
2022/03/21 03:02:41;;;;;;;17.07;15.07;;;6.80;1.00;7.30;101940.00;;;;5085210;28;20959;-77
2022/03/21 03:05:10;;;;;;;19.30;15.77;;;6.80;1.00;7.20;101959.00;;;;5087598;28;20466;-78
2022/03/21 03:07:38;;;;;;;17.50;14.73;;;6.80;1.00;7.10;101951.00;;;;5079400;28;21213;-77
2022/03/21 03:10:08;;;;;;;16.30;14.23;;;6.70;1.00;7.00;101959.00;;;;5075984;28;20442;-77
2022/03/21 03:12:36;;;;;;;15.50;13.30;;;6.70;1.00;7.00;101969.00;;;;5088275;28;20572;-77
2022/03/21 03:15:08;;;;;;;15.97;14.27;;;6.60;1.00;7.10;101964.00;;;;5086425;28;20524;-77
2022/03/21 03:17:36;;;;;;;17.53;15.10;;;6.60;1.00;7.10;101969.00;;;;5085998;28;20569;-77
2022/03/21 03:20:06;;;;;;;17.80;14.73;;;6.70;1.00;7.10;101960.00;;;;5080416;28;20480;-78
2022/03/21 03:22:35;;;;;;;21.40;16.27;;;6.70;1.00;7.00;101962.00;;;;5090510;28;20461;-77
2022/03/21 03:25:06;;;;;;;16.67;14.80;;;6.60;1.00;7.00;101963.00;;;;5087662;28;20462;-78
2022/03/21 03:27:34;;;;;;;17.40;15.60;;;6.60;1.00;7.00;101967.00;;;;5085474;28;20450;-77
2022/03/21 03:30:03;;;;;;;15.90;14.30;;;6.50;1.00;6.90;101973.00;;;;5087915;28;20453;-77
2022/03/21 03:32:32;;;;;;;18.20;15.80;;;6.50;1.00;6.80;101979.00;;;;5083652;28;20465;-77
2022/03/21 03:35:01;;;;;;;20.77;15.53;;;6.50;1.00;6.90;101954.00;;;;5085360;28;20524;-78
2022/03/21 03:37:29;;;;;;;20.07;15.63;;;6.40;1.00;6.70;101974.00;;;;5086193;28;20456;-78
2022/03/21 03:39:57;;;;;;;17.80;15.47;;;6.40;1.00;6.70;101955.00;;;;5104091;28;20983;-78
2022/03/21 03:42:26;;;;;;;17.77;14.87;;;6.30;1.00;6.70;101955.00;;;;5087693;28;20474;-78
2022/03/21 03:44:54;;;;;;;17.50;15.30;;;6.30;1.00;6.60;101977.00;;;;5090586;28;20988;-78
2022/03/21 03:47:23;;;;;;;19.03;15.67;;;6.30;1.00;6.70;101996.00;;;;5094803;28;20515;-78
2022/03/21 03:49:53;;;;;;;20.60;16.20;;;6.30;1.00;6.70;101992.00;;;;5102111;28;20478;-77
2022/03/21 03:52:21;;;;;;;17.13;14.57;;;6.30;1.00;6.80;101983.00;;;;5101555;28;20454;-77
2022/03/21 03:54:49;;;;;;;19.80;16.27;;;6.30;1.00;6.80;101979.00;;;;5104997;28;20458;-77
2022/03/21 03:57:18;;;;;;;17.30;13.70;;;6.30;1.00;6.80;101977.00;;;;5104804;28;20497;-78
2022/03/21 03:59:46;;;;;;;19.67;14.67;;;6.30;1.00;6.80;101965.00;;;;5110183;28;20545;-77
2022/03/21 04:02:14;;;;;;;17.97;15.00;;;6.30;1.00;6.80;101989.00;;;;5109000;28;20438;-77
2022/03/21 04:04:43;;;;;;;19.50;15.57;;;6.30;1.00;6.80;101992.00;;;;5112973;28;20480;-77
2022/03/21 04:07:12;;;;;;;19.07;16.83;;;6.30;1.00;6.80;101986.00;;;;5094489;28;20457;-77
2022/03/21 04:09:40;;;;;;;19.53;16.30;;;6.30;1.00;6.70;101981.00;;;;5088172;28;20943;-78
2022/03/21 04:12:10;;;;;;;20.50;16.80;;;6.30;1.00;6.60;101979.00;;;;5089945;28;20457;-78
2022/03/21 04:14:39;;;;;;;20.33;16.97;;;6.20;1.00;6.60;101990.00;;;;5088340;28;20454;-78
2022/03/21 04:17:07;;;;;;;16.63;14.90;;;6.20;1.00;6.60;101984.00;;;;5088627;28;20460;-78
2022/03/21 04:19:35;;;;;;;17.80;15.17;;;6.10;1.00;6.50;101989.00;;;;5103231;28;20991;-77
2022/03/21 04:22:04;;;;;;;19.40;15.87;;;6.10;1.00;6.50;101997.00;;;;5083755;28;20502;-78
2022/03/21 04:24:34;;;;;;;17.80;15.70;;;6.10;1.00;6.40;101990.00;;;;5087153;28;20943;-78
2022/03/21 04:27:03;;;;;;;16.47;14.07;;;6.00;1.00;6.40;101972.00;;;;5087459;28;20441;-78
2022/03/21 04:29:31;;;;;;;16.23;14.53;;;5.90;1.00;6.40;101962.00;;;;5078570;28;20465;-78
2022/03/21 04:31:59;;;;;;;19.03;15.60;;;5.90;1.00;6.40;101957.00;;;;5089807;28;20438;-79
2022/03/21 04:34:28;;;;;;;18.87;15.17;;;6.20;1.00;6.30;102008.00;;;;5094852;28;20464;-79
2022/03/21 04:36:56;;;;;;;15.67;14.00;;;6.20;1.00;6.20;102017.00;;;;5106138;28;20481;-79
2022/03/21 04:39:24;;;;;;;17.23;15.20;;;5.80;1.00;6.10;102002.00;;;;5099951;28;20474;-80
2022/03/21 04:41:54;;;;;;;19.40;17.00;;;5.70;1.00;6.10;101988.00;;;;5105887;28;20472;-78
2022/03/21 04:44:24;;;;;;;19.03;15.20;;;5.70;1.00;6.10;102012.00;;;;5096695;28;20434;-78
2022/03/21 04:46:53;;;;;;;16.67;14.93;;;5.70;1.00;6.20;102030.00;;;;5086848;28;21116;-78
2022/03/21 04:49:21;;;;;;;16.53;14.80;;;6.00;1.00;6.10;102036.00;;;;5085859;28;20478;-78
2022/03/21 04:51:50;;;;;;;16.77;14.17;;;5.70;1.00;6.20;102005.00;;;;5075829;28;20447;-78
2022/03/21 04:54:19;;;;;;;16.93;14.63;;;5.70;1.00;6.20;102033.00;;;;5085693;28;20453;-77
2022/03/21 04:56:47;;;;;;;20.60;15.83;;;5.80;1.00;6.10;102027.00;;;;5077910;28;20451;-77
2022/03/21 04:59:17;;;;;;;16.80;14.47;;;5.70;1.00;6.10;102029.00;;;;5081807;28;20856;-77
2022/03/21 05:01:45;;;;;;;16.90;15.10;;;5.70;1.00;6.20;67628.00;;;;5084839;28;20446;-77
2022/03/21 05:04:14;;;;;;;20.00;14.10;;;5.70;1.00;6.20;102032.00;;;;5083908;28;20474;-78
2022/03/21 05:06:42;;;;;;;18.80;15.13;;;5.70;1.00;6.10;102036.00;;;;5083481;28;21009;-78
2022/03/21 05:09:10;;;;;;;17.37;15.40;;;5.70;1.00;6.10;102004.00;;;;5083892;28;20462;-78
2022/03/21 05:11:39;;;;;;;21.30;15.27;;;5.70;1.00;6.10;102008.00;;;;5077052;28;20509;-79
2022/03/21 05:14:07;;;;;;;20.70;15.97;;;5.70;1.00;6.00;102016.00;;;;5084549;28;20462;-79
2022/03/21 05:16:38;;;;;;;17.77;15.30;;;5.60;1.00;6.00;102034.00;;;;5085260;28;20477;-79
2022/03/21 05:19:07;;;;;;;20.00;14.83;;;5.60;1.00;6.00;102023.00;;;;5082008;28;20478;-77
2022/03/21 05:21:40;;;;;;;16.63;14.67;;;5.50;1.00;6.00;102016.00;;;;5085361;28;20451;-79
2022/03/21 05:32:28;;;;;;;21.33;15.80;;;5.40;1.00;5.90;102039.00;;;;5099198;28;20978;-77
2022/03/21 05:37:42;;;;;;;21.33;15.20;;;5.50;1.00;5.90;102042.00;;;;5087159;28;20462;-77
2022/03/21 05:42:58;;;;;;;22.40;15.43;;;5.50;1.00;6.00;102040.00;;;;5100227;28;21448;-78
2022/03/21 05:45:28;;;;;;;26.40;15.87;;;5.60;1.00;6.10;102051.00;;;;5085108;28;20471;-78
2022/03/21 05:50:44;;;;;;;17.07;13.60;;;5.60;1.00;6.10;102053.00;;;;5085412;28;20450;-77
2022/03/21 05:53:12;;;;;;;16.40;14.57;;;5.70;1.00;6.20;102053.00;;;;5079802;28;20540;-77
2022/03/21 05:55:40;;;;;;;20.77;14.27;;;5.80;1.00;6.20;102047.00;;;;5084409;28;20461;-76
2022/03/21 05:58:08;;;;;;;26.50;17.57;;;5.80;1.00;6.30;102055.00;;;;5084287;28;20481;-78
2022/03/21 06:00:37;;;;;;;19.10;14.60;;;5.90;1.00;6.40;102052.00;;;;5084109;28;20468;-78
2022/03/21 06:03:09;;;;;;;18.97;14.53;;;5.90;1.00;6.50;102049.00;;;;5082893;28;20829;-77
2022/03/21 06:05:37;;;;;;;20.03;14.50;;;6.30;1.00;6.50;102024.00;;;;5083692;28;20470;-78
2022/03/21 06:08:06;;;;;;;15.77;14.03;;;6.10;1.00;6.50;102058.00;;;;5085101;28;20473;-79
2022/03/21 06:10:36;;;;;;;21.50;14.90;;;6.10;1.00;6.60;102049.00;;;;5101437;28;20532;-78
2022/03/21 06:13:06;;;;;;;19.63;15.03;;;6.20;1.00;6.70;102058.00;;;;5085150;28;20468;-78
2022/03/21 06:15:36;;;;;;;23.73;16.50;;;6.30;1.00;6.90;102044.00;;;;5083368;28;20466;-77
2022/03/21 06:18:11;;;;;;;23.13;14.50;;;6.40;1.00;7.00;102064.00;;;;5088338;28;20576;-77
2022/03/21 06:20:41;;;;;;;18.60;14.03;;;6.50;1.00;7.10;102063.00;;;;5083008;28;20466;-79
2022/03/21 06:23:09;;;;;;;20.27;15.60;;;6.60;1.00;7.10;102045.00;;;;5084249;28;20552;-79
2022/03/21 06:25:38;;;;;;;18.20;14.37;;;6.70;1.00;7.20;102067.00;;;;5083334;28;20474;-79
2022/03/21 06:28:08;;;;;;;18.93;14.43;;;6.80;1.00;7.40;67893.00;;;;5084144;28;20474;-78
2022/03/21 06:30:37;;;;;;;14.37;12.87;;;7.10;1.00;7.40;102062.00;;;;5087222;28;20507;-77
2022/03/21 06:33:11;;;;;;;18.27;13.57;;;7.00;1.00;7.50;102081.00;;;;5085220;28;20955;-78
2022/03/21 06:35:40;;;;;;;18.33;13.90;;;7.10;1.00;7.60;102092.00;;;;5085375;28;20503;-78
2022/03/21 06:38:10;;;;;;;15.50;13.67;;;7.50;1.00;7.80;102080.00;;;;5087203;28;20478;-78
2022/03/21 06:40:39;;;;;;;15.83;12.83;;;7.30;1.00;7.90;102082.00;;;;5090030;28;20457;-78
2022/03/21 06:43:07;;;;;;;16.77;13.70;;;7.50;1.00;8.00;102084.00;;;;5086263;28;20472;-79
2022/03/21 06:45:36;;;;;;;16.63;13.27;;;7.60;1.00;8.10;102088.00;;;;5083080;28;20461;-78
2022/03/21 06:48:06;;;;;;;17.17;13.70;;;7.70;1.00;8.20;102099.00;;;;5101813;28;20468;-78
2022/03/21 06:50:35;;;;;;;15.17;13.00;;;7.80;1.00;8.20;102086.00;;;;5105444;28;20442;-79
2022/03/21 06:53:04;;;;;;;15.57;12.93;;;7.80;1.00;8.30;102093.00;;;;5104852;28;20430;-77
2022/03/21 06:55:33;;;;;;;17.03;15.27;;;7.90;1.00;8.30;102094.00;;;;5106256;28;20465;-77
2022/03/21 06:58:03;;;;;;;16.70;12.53;;;8.00;1.00;8.40;102103.00;;;;5103343;28;20556;-78
2022/03/21 07:00:32;;;;;;;14.73;12.80;;;8.00;1.00;8.50;102102.00;;;;5104299;28;20489;-78
2022/03/21 07:03:01;;;;;;;14.90;12.23;;;8.10;1.00;8.60;102108.00;;;;5105609;28;20482;-77
2022/03/21 07:05:30;;;;;;;18.17;13.67;;;8.20;1.00;8.70;102118.00;;;;5089480;28;20515;-77
2022/03/21 07:08:00;;;;;;;17.73;14.17;;;8.30;1.00;8.70;102121.00;;;;5095985;28;20488;-77
2022/03/21 07:10:28;;;;;;;15.53;13.00;;;8.40;1.00;8.70;102120.00;;;;5105341;28;20478;-77
2022/03/21 07:12:57;;;;;;;20.97;14.63;;;8.40;1.00;8.80;102121.00;;;;5111650;28;20446;-77
2022/03/21 07:15:25;;;;;;;15.13;13.53;;;8.50;1.00;8.90;102120.00;;;;5105688;28;20446;-77
2022/03/21 07:17:55;;;;;;;17.30;13.53;;;8.60;1.00;8.90;102120.00;;;;5113253;28;20451;-77
2022/03/21 07:20:25;;;;;;;15.90;12.83;;;8.60;1.00;9.00;102110.00;;;;5111135;28;20434;-77
2022/03/21 07:22:54;;;;;;;17.40;13.50;;;8.70;1.00;9.10;102116.00;;;;5111902;28;20430;-77
2022/03/21 07:25:24;;;;;;;15.10;12.73;;;8.70;1.00;9.10;102110.00;;;;5126622;28;20476;-77
2022/03/21 07:27:53;;;;;;;16.40;13.43;;;9.10;1.00;9.10;102120.00;;;;5106711;28;20472;-76
2022/03/21 07:30:22;;;;;;;16.73;13.97;;;9.20;1.00;9.20;102089.00;;;;5095257;28;20474;-77
2022/03/21 07:32:51;;;;;;;14.17;12.43;;;8.90;1.00;9.30;102106.00;;;;5100242;28;20459;-77
2022/03/21 07:35:20;;;;;;;14.50;13.00;;;8.90;1.00;9.30;102129.00;;;;5096280;28;20454;-77
2022/03/21 07:37:53;;;;;;;17.90;13.87;;;9.00;1.00;9.40;102119.00;;;;5093550;28;20463;-78
2022/03/21 07:40:21;;;;;;;17.70;13.63;;;9.10;1.00;9.50;102120.00;;;;5094375;28;20461;-77
2022/03/21 07:42:51;;;;;;;16.73;13.90;;;9.20;1.00;9.50;102133.00;;;;5091182;28;20545;-76
2022/03/21 07:48:07;;;;;;;15.30;13.70;;;9.30;1.00;9.60;102136.00;;;;5088558;28;21187;-77
2022/03/21 07:50:35;;;;;;;18.37;14.03;;;9.30;1.00;9.70;102137.00;;;;5085638;28;20465;-77
2022/03/21 07:53:04;;;;;;;17.90;13.60;;;9.40;1.00;9.80;102136.00;;;;5086433;28;20485;-78
2022/03/21 07:55:32;;;;;;;18.07;15.03;;;9.50;1.00;9.80;102135.00;;;;5095153;28;20446;-77
2022/03/21 07:58:02;;;;;;;17.90;14.77;;;9.50;1.00;9.80;102114.00;;;;5097790;28;20584;-77
2022/03/21 08:00:31;;;;;;;16.43;13.53;;;9.60;1.00;9.90;102126.00;;;;5097607;28;20461;-78
2022/03/21 08:03:00;;;;;;;18.53;13.77;;;9.60;1.00;10.00;102139.00;;;;5094548;28;20458;-77
2022/03/21 08:05:29;;;;;;;17.23;13.07;;;9.70;1.00;10.10;102139.00;;;;5084261;28;20453;-77
2022/03/21 08:07:58;;;;;;;17.77;13.80;;;9.80;1.00;10.30;102149.00;;;;5082054;28;20484;-77
2022/03/21 08:10:29;;;;;;;18.63;13.13;;;9.90;1.00;10.50;102148.00;;;;5084686;28;20555;-77
2022/03/21 08:12:58;;;;;;;15.37;13.17;;;10.50;1.00;10.50;102145.00;;;;5084020;28;20458;-77
2022/03/21 08:15:28;;;;;;;15.27;13.30;;;10.20;1.00;10.50;102147.00;;;;5084078;28;20993;-77
2022/03/21 08:18:00;;;;;;;21.30;13.53;;;10.30;1.00;10.60;102144.00;;;;5081916;28;20466;-77
2022/03/21 08:20:33;;;;;;;15.27;13.67;;;10.30;1.00;10.60;102156.00;;;;5105758;28;20482;-77
2022/03/21 08:23:05;;;;;;;14.20;12.57;;;10.40;1.00;10.70;102167.00;;;;5090659;28;20448;-80
2022/03/21 08:25:35;;;;;;;16.20;11.77;;;10.40;1.00;10.90;102144.00;;;;5093905;28;20458;-77
2022/03/21 08:28:03;;;;;;;16.93;13.57;;;10.90;1.00;10.90;102150.00;;;;5095782;28;20481;-76
2022/03/21 08:30:35;;;;;;;13.40;12.10;;;11.10;1.00;11.10;102156.00;;;;5093969;28;20514;-75
2022/03/21 08:33:06;;;;;;;15.33;11.73;;;10.80;1.00;11.10;102159.00;;;;5090202;28;20519;-79
2022/03/21 08:35:36;;;;;;;14.43;12.67;;;10.90;1.00;11.30;102147.00;;;;5099575;28;20442;-79
2022/03/21 08:38:05;;;;;;;14.77;13.13;;;11.20;1.00;11.30;102144.00;;;;5099578;28;20482;-78
2022/03/21 08:40:35;;;;;;;14.20;12.20;;;11.10;1.00;11.30;102144.00;;;;5086813;28;20476;-77
2022/03/21 08:43:04;;;;;;;16.50;13.10;;;11.10;1.00;11.40;102156.00;;;;5081067;28;20450;-77
2022/03/21 08:45:34;;;;;;;16.60;12.87;;;11.10;1.00;11.60;102164.00;;;;5084968;28;20856;-76
2022/03/21 08:48:03;;;;;;;13.93;12.40;;;11.40;1.00;11.70;102162.00;;;;5079957;28;20497;-78
2022/03/21 08:50:33;;;;;;;14.87;11.90;;;11.60;1.00;11.70;102163.00;;;;5081142;28;20454;-77
2022/03/21 08:53:01;;;;;;;13.97;11.50;;;11.50;1.00;11.80;102163.00;;;;5069830;28;20541;-77
2022/03/21 08:55:30;;;;;;;13.00;11.70;;;11.70;1.00;11.90;102150.00;;;;5092507;28;20493;-77
2022/03/21 08:57:58;;;;;;;15.10;12.00;;;11.80;1.00;12.00;102168.00;;;;5077635;28;20473;-77
2022/03/21 09:00:27;;;;;;;20.07;12.27;;;11.90;1.00;11.90;102151.00;;;;5085591;28;21272;-77
2022/03/21 09:02:57;;;;;;;16.27;13.03;;;11.80;1.00;11.90;102139.00;;;;5075179;28;20897;-77
2022/03/21 09:05:26;;;;;;;17.73;12.63;;;11.80;1.00;11.90;102151.00;;;;5082082;28;20464;-77
2022/03/21 09:07:55;;;;;;;13.47;12.07;;;11.80;1.00;11.90;102146.00;;;;5085383;28;20469;-77
2022/03/21 09:10:23;;;;;;;14.90;12.70;;;11.70;1.00;12.00;102155.00;;;;5096759;28;20843;-77
2022/03/21 09:12:53;;;;;;;13.30;11.90;;;11.90;1.00;12.10;102151.00;;;;5091333;28;20462;-77
2022/03/21 09:15:22;;;;;;;13.63;12.27;;;12.00;1.00;12.30;102158.00;;;;5086640;28;20458;-77
2022/03/21 09:17:58;;;;;;;14.40;12.90;;;12.10;1.00;12.40;102156.00;;;;5090393;28;20840;-78
2022/03/21 09:20:26;;;;;;;14.33;12.83;;;12.30;1.00;12.50;102159.00;;;;5080475;28;20438;-79
2022/03/21 09:22:57;;;;;;;14.27;12.77;;;12.40;1.00;12.50;102150.00;;;;5092310;28;20481;-80
2022/03/21 09:25:25;;;;;;;12.90;11.60;;;12.50;1.00;12.60;102147.00;;;;5083724;28;20478;-79
2022/03/21 09:27:54;;;;;;;15.40;11.87;;;12.60;1.00;12.60;102152.00;;;;5086624;28;20478;-78
2022/03/21 09:30:23;;;;;;;15.10;12.57;;;12.60;1.00;12.70;102143.00;;;;5093814;28;20458;-79
2022/03/21 09:32:52;;;;;;;16.33;13.47;;;12.70;1.00;12.80;102147.00;;;;5086185;28;20489;-80
2022/03/21 09:35:22;;;;;;;14.23;12.73;;;12.70;1.00;12.90;102139.00;;;;5091390;28;20550;-79
2022/03/21 09:37:50;;;;;;;15.20;13.07;;;12.80;1.00;12.90;102143.00;;;;5113689;28;20967;-80
2022/03/21 09:40:20;;;;;;;13.60;12.27;;;12.90;1.00;13.00;102140.00;;;;5094560;28;20489;-78
2022/03/21 09:42:49;;;;;;;14.00;12.20;;;13.00;1.00;12.90;102137.00;;;;5096424;28;20508;-79
2022/03/21 09:45:17;;;;;;;14.43;13.03;;;12.90;1.00;13.00;102146.00;;;;5105587;28;20512;-81
2022/03/21 09:50:39;;;;;;;14.47;12.53;;;13.10;1.00;13.30;102133.00;;;;5099316;28;20457;-78
2022/03/21 09:53:09;;;;;;;16.13;12.93;;;13.20;1.00;13.30;102141.00;;;;5112688;28;20438;-80
2022/03/21 09:55:38;;;;;;;14.60;12.80;;;13.30;1.00;13.40;102143.00;;;;5109888;28;20469;-80
2022/03/21 09:58:09;;;;;;;14.13;12.00;;;13.40;1.00;13.30;102126.00;;;;5111359;28;20470;-77
2022/03/21 10:00:39;;;;;;;18.37;13.07;;;13.30;1.00;13.30;102127.00;;;;5104003;28;20445;-77
2022/03/21 10:03:09;;;;;;;16.13;12.93;;;13.30;1.00;13.40;102116.00;;;;5108429;28;20449;-76
2022/03/21 10:05:42;;;;;;;14.87;12.70;;;13.40;1.00;13.50;102150.00;;;;5093767;28;20538;-78
2022/03/21 10:08:13;;;;;;;13.90;12.40;;;13.50;1.00;13.60;102126.00;;;;5092420;28;20509;-77
2022/03/21 10:10:53;;;;;;;16.83;13.50;;;13.50;1.00;13.70;102116.00;;;;5084675;28;20538;-75
2022/03/21 10:13:23;;;;;;;15.53;13.87;;;13.70;1.00;13.80;102126.00;;;;5069232;28;20461;-76
2022/03/21 10:16:09;;;;;;;14.83;13.20;;;13.80;1.00;13.90;102114.00;;;;5079371;28;20648;-77
2022/03/21 10:18:38;;;;;;;16.63;13.20;;;13.90;1.00;14.00;102127.00;;;;5087262;28;20472;-79
2022/03/21 10:21:16;;;;;;;16.50;13.70;;;14.00;1.00;14.00;102118.00;;;;5084841;28;20462;-77
2022/03/21 10:23:45;;;;;;;15.80;13.87;;;14.10;1.00;14.10;102112.00;;;;5090775;28;21013;-78
2022/03/21 10:26:28;;;;;;;16.23;13.97;;;14.10;1.00;14.10;102118.00;;;;5096770;28;20530;-78
2022/03/21 10:28:59;;;;;;;16.10;14.20;;;14.10;1.00;14.10;102115.00;;;;5091814;28;20474;-77
2022/03/21 10:31:42;;;;;;;17.10;14.30;;;14.10;1.00;14.10;102105.00;;;;5091447;28;20483;-77
2022/03/21 10:34:15;;;;;;;16.60;14.00;;;14.10;1.00;14.10;102101.00;;;;5088417;28;20485;-77
2022/03/21 10:37:03;;;;;;;19.40;14.37;;;14.00;1.00;14.20;102111.00;;;;5087821;28;20576;-77
2022/03/21 10:39:35;;;;;;;18.00;16.10;;;14.10;1.00;14.30;102120.00;;;;5088226;28;20466;-77
2022/03/21 10:42:06;;;;;;;19.80;15.10;;;14.30;1.00;14.50;102119.00;;;;5089275;28;20571;-77
2022/03/21 10:44:36;;;;;;;20.67;18.50;;;14.50;1.00;14.60;102089.00;;;;5083245;28;20454;-77
2022/03/21 10:47:07;;;;;;;15.80;14.20;;;14.60;1.00;14.60;102109.00;;;;5083293;28;20455;-76
2022/03/21 10:49:38;;;;;;;16.10;14.40;;;14.70;1.00;14.60;102108.00;;;;5080065;28;20508;-77
2022/03/21 10:52:08;;;;;;;17.60;14.53;;;14.60;1.00;14.70;102103.00;;;;5087174;28;20450;-76
2022/03/21 10:54:45;;;;;;;15.67;13.97;;;14.60;1.00;14.80;102129.00;;;;5087158;28;20457;-76
2022/03/21 10:57:32;;;;;;;19.40;15.37;;;14.70;1.00;14.90;102086.00;;;;5082425;28;20481;-76
2022/03/21 11:00:17;;;;;;;23.60;18.80;;;15.10;1.00;15.00;102115.00;;;;5086067;28;20477;-77
2022/03/21 11:02:58;;;;;;;17.80;15.47;;;15.00;1.00;15.10;102095.00;;;;5100006;28;20462;-77
2022/03/21 11:05:30;;;;;;;16.47;14.70;;;15.10;1.00;15.10;102091.00;;;;5084688;28;20613;-76
2022/03/21 11:08:00;;;;;;;18.40;16.17;;;15.20;1.00;15.20;102100.00;;;;5074944;28;20454;-76
2022/03/21 11:10:28;;;;;;;17.17;15.47;;;15.20;1.00;15.30;102107.00;;;;5103696;28;20835;-76
2022/03/21 11:13:01;;;;;;;17.37;14.30;;;15.30;1.00;15.30;102094.00;;;;5084857;28;20458;-76
2022/03/21 11:15:35;;;;;;;18.40;13.97;;;15.40;1.00;15.40;102099.00;;;;5081325;28;21565;-77
2022/03/21 11:18:05;;;;;;;18.50;15.60;;;15.40;1.00;15.50;102085.00;;;;5084162;28;21074;-77
2022/03/21 11:20:34;;;;;;;16.33;14.33;;;15.60;1.00;15.60;102097.00;;;;5088965;28;20931;-77
2022/03/21 11:23:04;;;;;;;17.37;15.03;;;15.70;1.00;15.70;102090.00;;;;5088509;28;20805;-76
2022/03/21 11:25:36;;;;;;;17.87;15.30;;;15.80;1.00;15.80;102092.00;;;;5088033;28;20537;-77
2022/03/21 11:28:46;;;;;;;18.20;15.60;;;15.90;1.00;15.90;102074.00;;;;5084359;28;20554;-77